createdAt,value
2019-05-22T00:00:40.914Z,71.13
2019-05-22T00:03:10.278Z,52.37
2019-05-22T00:05:37.774Z,30.63
2019-05-22T00:08:06.069Z,75.00
2019-05-22T00:10:34.029Z,77.13
2019-05-22T00:13:03.923Z,68.40
2019-05-22T00:15:32.925Z,65.73
2019-05-22T00:18:04.274Z,102.10
2019-05-22T00:20:31.157Z,80.60
2019-05-22T00:22:59.392Z,74.93
2019-05-22T00:25:28.347Z,79.47
2019-05-22T00:27:58.761Z,101.37
2019-05-22T00:30:28.431Z,95.23
2019-05-22T00:32:56.045Z,90.63
2019-05-22T00:35:24.731Z,75.37
2019-05-22T00:37:53.893Z,97.40
2019-05-22T00:40:21.794Z,83.43
2019-05-22T00:43:03.280Z,100.90
2019-05-22T00:45:20.670Z,84.97
2019-05-22T00:47:50.391Z,83.40
2019-05-22T00:50:21.853Z,76.17
2019-05-22T00:52:59.644Z,80.70
2019-05-22T00:55:41.272Z,86.70
2019-05-22T00:58:28.786Z,80.63
2019-05-22T01:01:01.661Z,63.73
2019-05-22T01:03:33.060Z,87.07
2019-05-22T01:06:00.864Z,85.90
2019-05-22T01:08:28.013Z,45.77
2019-05-22T01:10:57.010Z,72.60
2019-05-22T01:13:28.319Z,105.63
2019-05-22T01:15:55.524Z,92.63
2019-05-22T01:18:24.900Z,83.57
2019-05-22T01:20:54.550Z,79.17
2019-05-22T01:23:23.264Z,94.00
2019-05-22T01:25:51.410Z,84.77
2019-05-22T01:28:19.050Z,81.43
2019-05-22T01:30:51.640Z,51.47
2019-05-22T01:33:25.646Z,52.20
2019-05-22T01:36:10.028Z,61.83
2019-05-22T01:38:38.626Z,83.43
2019-05-22T01:41:11.935Z,51.67
2019-05-22T01:43:41.371Z,60.00
2019-05-22T01:46:09.095Z,51.63
2019-05-22T01:48:39.714Z,48.43
2019-05-22T01:51:10.523Z,75.73
2019-05-22T01:53:40.395Z,37.00
2019-05-22T01:56:10.714Z,51.27
2019-05-22T01:58:40.741Z,41.90
2019-05-22T02:01:12.747Z,43.10
2019-05-22T02:03:41.249Z,51.03
2019-05-22T02:06:09.505Z,58.27
2019-05-22T02:08:43.322Z,34.63
2019-05-22T02:11:13.422Z,43.33
2019-05-22T02:13:46.805Z,43.23
2019-05-22T02:16:13.913Z,38.60
2019-05-22T02:18:44.450Z,41.53
2019-05-22T02:21:12.462Z,41.50
2019-05-22T02:23:40.072Z,29.63
2019-05-22T02:26:09.093Z,25.87
2019-05-22T02:28:36.302Z,27.73
2019-05-22T02:31:03.618Z,23.97
2019-05-22T02:33:31.670Z,23.90
2019-05-22T02:35:59.553Z,27.23
2019-05-22T02:38:26.399Z,29.67
2019-05-22T02:40:54.418Z,27.13
2019-05-22T02:43:24.019Z,27.70
2019-05-22T02:45:51.046Z,19.90
2019-05-22T02:48:20.054Z,20.60
2019-05-22T02:50:47.966Z,24.20
2019-05-22T02:53:15.397Z,29.07
2019-05-22T02:55:42.691Z,24.87
2019-05-22T02:58:12.447Z,20.50
2019-05-22T03:00:56.443Z,24.33
2019-05-22T03:03:24.279Z,26.23
2019-05-22T03:05:53.999Z,24.57
2019-05-22T03:08:21.608Z,26.23
2019-05-22T03:10:49.686Z,29.03
2019-05-22T03:13:18.796Z,36.50
2019-05-22T03:15:46.062Z,29.07
2019-05-22T03:18:14.571Z,31.77
2019-05-22T03:20:42.967Z,32.87
2019-05-22T03:23:39.836Z,35.00
2019-05-22T03:26:08.593Z,27.37
2019-05-22T03:28:36.475Z,27.90
2019-05-22T03:31:04.349Z,26.27
2019-05-22T03:33:31.394Z,30.37
2019-05-22T03:36:06.243Z,35.43
2019-05-22T03:38:34.004Z,30.90
2019-05-22T03:41:01.032Z,28.93
2019-05-22T03:43:30.151Z,22.33
2019-05-22T03:46:02.237Z,28.07
2019-05-22T03:48:33.494Z,32.20
2019-05-22T03:51:09.023Z,30.73
2019-05-22T03:53:36.558Z,34.37
2019-05-22T03:56:03.585Z,30.63
2019-05-22T03:58:30.784Z,39.87
2019-05-22T04:01:00.690Z,31.57
2019-05-22T04:03:28.465Z,22.13
2019-05-22T04:05:56.129Z,32.13
2019-05-22T04:08:24.852Z,31.77
2019-05-22T04:10:56.331Z,30.80
2019-05-22T04:13:23.622Z,26.87
2019-05-22T04:15:51.213Z,27.20
2019-05-22T04:18:22.762Z,41.37
2019-05-22T04:20:48.306Z,38.00
2019-05-22T04:23:15.300Z,31.60
2019-05-22T04:25:43.839Z,19.63
2019-05-22T04:28:10.942Z,25.60
2019-05-22T04:30:37.959Z,23.37
2019-05-22T04:33:06.660Z,23.07
2019-05-22T04:35:33.954Z,20.67
2019-05-22T04:38:00.995Z,17.13
2019-05-22T04:40:48.373Z,16.73
2019-05-22T04:43:20.247Z,13.43
2019-05-22T04:45:49.163Z,19.40
2019-05-22T04:48:17.195Z,16.73
2019-05-22T04:50:45.370Z,19.13
2019-05-22T04:53:13.032Z,25.70
2019-05-22T04:55:40.037Z,20.07
2019-05-22T04:58:09.874Z,16.97
2019-05-22T05:00:37.518Z,15.07
2019-05-22T05:03:04.767Z,17.10
2019-05-22T05:05:34.374Z,20.80
2019-05-22T05:08:02.621Z,22.10
2019-05-22T05:10:29.654Z,16.70
2019-05-22T05:12:57.773Z,14.80
2019-05-22T05:15:24.749Z,17.33
2019-05-22T05:17:51.838Z,12.83
2019-05-22T05:20:22.602Z,13.53
2019-05-22T05:22:48.354Z,15.27
2019-05-22T05:25:17.584Z,17.73
2019-05-22T05:27:45.823Z,12.20
2019-05-22T05:30:15.581Z,18.10
2019-05-22T05:32:42.738Z,11.57
2019-05-22T05:35:11.081Z,9.27
2019-05-22T05:37:38.997Z,11.43
2019-05-22T05:40:32.747Z,11.50
2019-05-22T05:43:00.473Z,12.03
2019-05-22T05:45:28.697Z,12.10
2019-05-22T05:47:57.281Z,16.00
2019-05-22T05:50:38.937Z,10.33
2019-05-22T05:52:57.587Z,15.17
2019-05-22T05:55:28.103Z,13.80
2019-05-22T05:58:25.930Z,12.23
2019-05-22T06:00:59.302Z,22.77
2019-05-22T06:03:31.834Z,22.57
2019-05-22T06:06:04.753Z,11.50
2019-05-22T06:08:33.146Z,14.53
2019-05-22T06:11:42.067Z,11.57
2019-05-22T06:14:17.603Z,15.70
2019-05-22T06:17:20.506Z,10.93
2019-05-22T06:19:50.153Z,12.70
2019-05-22T06:22:18.587Z,10.83
2019-05-22T06:24:57.688Z,9.90
2019-05-22T06:27:35.013Z,9.77
2019-05-22T06:30:09.723Z,8.83
2019-05-22T06:33:16.536Z,8.93
2019-05-22T06:35:45.674Z,8.53
2019-05-22T06:38:59.074Z,8.97
2019-05-22T06:41:34.354Z,8.60
2019-05-22T06:44:31.997Z,7.90
2019-05-22T06:46:59.750Z,7.53
2019-05-22T06:49:38.543Z,7.60
2019-05-22T06:52:07.014Z,7.33
2019-05-22T06:54:34.022Z,7.30
2019-05-22T06:57:01.135Z,7.73
2019-05-22T06:59:28.318Z,8.60
2019-05-22T07:02:01.290Z,7.80
2019-05-22T07:04:26.658Z,8.23
2019-05-22T07:06:54.026Z,7.97
2019-05-22T07:09:22.355Z,9.37
2019-05-22T07:11:50.775Z,9.13
2019-05-22T07:14:18.238Z,8.90
2019-05-22T07:16:47.967Z,8.30
2019-05-22T07:19:15.176Z,8.50
2019-05-22T07:21:42.908Z,10.03
2019-05-22T07:24:10.326Z,9.23
2019-05-22T07:26:38.471Z,10.17
2019-05-22T07:29:05.813Z,10.17
2019-05-22T07:31:33.144Z,8.10
2019-05-22T07:34:00.587Z,9.40
2019-05-22T07:36:29.893Z,10.30
2019-05-22T07:38:57.112Z,9.33
2019-05-22T07:41:24.487Z,9.23
2019-05-22T07:43:51.710Z,9.03
2019-05-22T07:46:19.189Z,10.77
2019-05-22T07:48:46.434Z,10.40
2019-05-22T07:51:14.545Z,10.90
2019-05-22T07:53:41.553Z,9.70
2019-05-22T07:56:11.250Z,12.00
2019-05-22T07:58:40.029Z,11.07
2019-05-22T08:01:08.931Z,9.90
2019-05-22T08:03:36.691Z,11.33
2019-05-22T08:06:05.024Z,11.97
2019-05-22T08:08:35.499Z,10.40
2019-05-22T08:11:04.167Z,10.70
2019-05-22T08:13:32.473Z,11.13
2019-05-22T08:15:59.808Z,12.57
2019-05-22T08:18:29.692Z,13.23
2019-05-22T08:20:57.252Z,12.27
2019-05-22T08:23:26.066Z,11.90
2019-05-22T08:25:53.116Z,13.53
2019-05-22T08:28:20.211Z,11.40
2019-05-22T08:30:48.627Z,11.63
2019-05-22T08:33:16.531Z,11.10
2019-05-22T08:35:44.212Z,10.57
2019-05-22T08:38:11.811Z,9.83
2019-05-22T08:40:39.879Z,9.87
2019-05-22T08:43:07.122Z,9.30
2019-05-22T08:45:35.058Z,9.67
2019-05-22T08:48:02.978Z,9.23
2019-05-22T08:50:32.000Z,9.83
2019-05-22T08:53:00.365Z,9.30
2019-05-22T08:55:28.929Z,9.47
2019-05-22T08:57:56.169Z,7.83
2019-05-22T09:00:25.138Z,8.17
2019-05-22T09:02:52.242Z,8.03
2019-05-22T09:05:21.551Z,9.13
2019-05-22T09:07:48.107Z,8.03
2019-05-22T09:10:15.694Z,7.93
2019-05-22T09:12:43.177Z,10.40
2019-05-22T09:15:10.754Z,8.40
2019-05-22T09:17:38.066Z,9.00
2019-05-22T09:20:06.047Z,9.63
2019-05-22T09:22:40.526Z,9.77
2019-05-22T09:25:06.257Z,11.17
2019-05-22T09:27:38.741Z,9.73
2019-05-22T09:30:06.285Z,11.93
2019-05-22T09:32:33.198Z,10.67
2019-05-22T09:35:00.051Z,9.73
2019-05-22T09:37:27.026Z,12.70
2019-05-22T09:39:54.139Z,10.70
2019-05-22T09:42:21.509Z,11.00
2019-05-22T09:44:48.530Z,10.70
2019-05-22T09:47:17.547Z,11.13
2019-05-22T09:49:45.394Z,11.10
2019-05-22T09:52:13.211Z,10.13
2019-05-22T09:54:41.605Z,10.77
2019-05-22T09:57:08.470Z,10.53
2019-05-22T09:59:35.524Z,11.50
2019-05-22T10:02:04.251Z,11.33
2019-05-22T10:04:31.826Z,11.20
2019-05-22T10:06:58.877Z,11.90
2019-05-22T10:09:26.188Z,12.77
2019-05-22T10:11:53.387Z,19.13
2019-05-22T10:14:20.926Z,15.90
2019-05-22T10:16:48.249Z,14.93
2019-05-22T10:19:16.175Z,17.80
2019-05-22T10:21:43.436Z,18.47
2019-05-22T10:24:10.438Z,19.37
2019-05-22T10:26:37.754Z,20.07
2019-05-22T10:29:06.251Z,19.03
2019-05-22T10:31:33.647Z,17.13
2019-05-22T10:34:00.757Z,20.07
2019-05-22T10:36:28.150Z,17.83
2019-05-22T10:38:55.055Z,17.90
2019-05-22T10:41:22.554Z,16.97
2019-05-22T10:43:50.195Z,14.40
2019-05-22T10:46:17.017Z,12.50
2019-05-22T10:48:44.024Z,11.77
2019-05-22T10:51:11.339Z,10.20
2019-05-22T10:53:39.142Z,11.23
2019-05-22T10:56:06.115Z,10.00
2019-05-22T10:58:33.532Z,10.43
2019-05-22T11:01:00.528Z,11.97
2019-05-22T11:03:29.099Z,11.50
2019-05-22T11:06:06.345Z,12.40
2019-05-22T11:08:29.474Z,10.97
2019-05-22T11:10:54.507Z,12.00
2019-05-22T11:13:21.400Z,13.97
2019-05-22T11:15:48.814Z,13.37
2019-05-22T11:18:15.952Z,14.73
2019-05-22T11:20:43.094Z,15.00
2019-05-22T11:23:10.993Z,15.93
2019-05-22T11:25:38.138Z,17.80
2019-05-22T11:28:05.351Z,15.47
2019-05-22T11:30:33.286Z,14.97
2019-05-22T11:33:00.839Z,13.97
2019-05-22T11:35:28.004Z,13.83
2019-05-22T11:37:54.997Z,15.07
2019-05-22T11:40:22.135Z,14.53
2019-05-22T11:42:50.740Z,12.77
2019-05-22T11:45:19.397Z,15.70
2019-05-22T11:47:46.523Z,13.73
2019-05-22T11:50:15.419Z,16.03
2019-05-22T11:52:42.789Z,15.57
2019-05-22T11:55:12.501Z,14.27
2019-05-22T11:57:40.862Z,12.50
2019-05-22T12:00:10.875Z,11.87
2019-05-22T12:02:38.155Z,12.27
2019-05-22T12:05:06.802Z,12.73
2019-05-22T12:07:34.595Z,11.87
2019-05-22T12:10:01.975Z,12.27
2019-05-22T12:12:29.067Z,14.17
2019-05-22T12:14:55.986Z,13.23
2019-05-22T12:17:37.477Z,12.50
2019-05-22T12:19:52.431Z,13.27
2019-05-22T12:22:20.177Z,13.20
2019-05-22T12:24:47.683Z,19.60
2019-05-22T12:27:15.288Z,17.37
2019-05-22T12:29:42.743Z,15.77
2019-05-22T12:32:10.480Z,13.23
2019-05-22T12:34:42.356Z,12.87
2019-05-22T12:37:09.895Z,13.90
2019-05-22T12:39:38.419Z,15.87
2019-05-22T12:42:07.433Z,14.07
2019-05-22T12:44:34.858Z,13.97
2019-05-22T12:47:02.721Z,13.80
2019-05-22T12:49:29.759Z,12.70
2019-05-22T12:51:57.694Z,14.53
2019-05-22T12:54:24.811Z,17.47
2019-05-22T12:56:51.932Z,16.60
2019-05-22T12:59:19.654Z,16.73
2019-05-22T13:01:48.774Z,13.50
2019-05-22T13:04:16.199Z,11.73
2019-05-22T13:06:43.551Z,11.73
2019-05-22T13:09:11.362Z,12.53
2019-05-22T13:11:38.554Z,11.17
2019-05-22T13:14:06.121Z,10.67
2019-05-22T13:16:33.455Z,12.10
2019-05-22T13:19:01.080Z,9.90
2019-05-22T13:21:34.561Z,10.13
2019-05-22T13:24:13.338Z,10.13
2019-05-22T13:26:40.790Z,12.70
2019-05-22T13:29:09.911Z,8.57
2019-05-22T13:31:37.440Z,11.00
2019-05-22T13:34:04.598Z,9.17
2019-05-22T13:36:32.294Z,13.43
2019-05-22T13:38:59.735Z,10.20
2019-05-22T13:41:26.782Z,9.80
2019-05-22T13:43:54.001Z,6.83
2019-05-22T13:46:21.198Z,8.30
2019-05-22T13:48:48.238Z,7.63
2019-05-22T13:51:15.374Z,11.80
2019-05-22T13:53:43.828Z,8.90
2019-05-22T13:56:11.497Z,9.57
2019-05-22T13:58:39.003Z,9.43
2019-05-22T14:01:06.607Z,7.70
2019-05-22T14:03:34.056Z,8.13
2019-05-22T14:06:02.076Z,7.23
2019-05-22T14:08:29.245Z,7.83
2019-05-22T14:10:56.985Z,10.90
2019-05-22T14:13:25.010Z,9.80
2019-05-22T14:15:56.532Z,8.23
2019-05-22T14:18:21.146Z,8.33
2019-05-22T14:20:48.622Z,9.03
2019-05-22T14:23:16.311Z,7.20
2019-05-22T14:25:45.542Z,8.70
2019-05-22T14:28:14.890Z,8.37
2019-05-22T14:30:43.028Z,7.77
2019-05-22T14:33:10.491Z,9.50
2019-05-22T14:35:48.091Z,9.07
2019-05-22T14:38:08.595Z,6.60
2019-05-22T14:40:37.207Z,7.70
2019-05-22T14:43:04.243Z,7.50
2019-05-22T14:45:31.374Z,7.40
2019-05-22T14:47:58.421Z,7.13
2019-05-22T14:50:25.849Z,8.20
2019-05-22T14:52:52.963Z,6.87
2019-05-22T14:55:21.051Z,6.93
2019-05-22T14:57:48.388Z,6.93
2019-05-22T15:00:21.055Z,7.43
2019-05-22T15:02:54.182Z,8.37
2019-05-22T15:05:17.599Z,5.60
2019-05-22T15:07:44.732Z,7.50
2019-05-22T15:10:16.676Z,7.23
2019-05-22T15:12:41.723Z,7.77
2019-05-22T15:15:11.038Z,9.67
2019-05-22T15:17:38.053Z,7.00
2019-05-22T15:20:05.407Z,8.30
2019-05-22T15:22:33.348Z,5.60
2019-05-22T15:25:00.875Z,7.90
2019-05-22T15:27:27.943Z,6.73
2019-05-22T15:29:55.248Z,6.73
2019-05-22T15:32:22.914Z,9.07
2019-05-22T15:34:50.076Z,6.97
2019-05-22T15:37:18.885Z,7.13
2019-05-22T15:39:46.497Z,6.20
2019-05-22T15:42:39.190Z,6.33
2019-05-22T15:45:10.353Z,9.43
2019-05-22T15:47:53.261Z,7.17
2019-05-22T15:50:10.223Z,6.77
2019-05-22T15:52:40.166Z,6.83
2019-05-22T15:55:10.130Z,7.57
2019-05-22T15:57:38.732Z,6.17
2019-05-22T16:00:08.510Z,8.90
2019-05-22T16:02:37.035Z,6.33
2019-05-22T16:05:05.862Z,6.40
2019-05-22T16:07:33.284Z,6.87
2019-05-22T16:10:00.594Z,9.27
2019-05-22T16:12:28.033Z,7.93
2019-05-22T16:14:55.793Z,9.00
2019-05-22T16:17:23.228Z,9.70
2019-05-22T16:19:52.482Z,10.17
2019-05-22T16:22:19.754Z,10.40
2019-05-22T16:24:46.872Z,12.37
2019-05-22T16:27:15.372Z,10.93
2019-05-22T16:29:42.868Z,10.73
2019-05-22T16:32:11.363Z,7.67
2019-05-22T16:34:40.076Z,10.53
2019-05-22T16:37:07.288Z,9.23
2019-05-22T16:39:36.629Z,11.07
2019-05-22T16:42:05.241Z,6.90
2019-05-22T16:44:32.830Z,9.77
2019-05-22T16:47:00.344Z,8.27
2019-05-22T16:49:27.991Z,8.10
2019-05-22T16:51:57.444Z,10.17
2019-05-22T16:54:25.140Z,12.47
2019-05-22T16:56:53.290Z,11.03
2019-05-22T16:59:20.912Z,11.43
2019-05-22T17:01:58.884Z,12.20
2019-05-22T17:04:17.927Z,11.47
2019-05-22T17:06:45.446Z,13.00
2019-05-22T17:09:15.712Z,13.40
2019-05-22T17:11:43.520Z,11.17
2019-05-22T17:14:12.535Z,11.20
2019-05-22T17:16:40.547Z,9.70
2019-05-22T17:19:25.542Z,10.43
2019-05-22T17:21:57.844Z,10.03
2019-05-22T17:24:25.260Z,11.90
2019-05-22T17:26:52.988Z,10.90
2019-05-22T17:29:20.705Z,9.97
2019-05-22T17:31:48.038Z,13.00
2019-05-22T17:34:35.936Z,10.37
2019-05-22T17:37:07.547Z,10.77
2019-05-22T17:39:37.593Z,11.50
2019-05-22T17:42:07.363Z,8.30
2019-05-22T17:44:34.561Z,6.73
2019-05-22T17:47:05.954Z,9.63
2019-05-22T17:49:32.554Z,7.43
2019-05-22T17:52:00.264Z,10.77
2019-05-22T17:54:28.080Z,6.90
2019-05-22T17:56:55.129Z,8.23
2019-05-22T17:59:22.271Z,9.87
2019-05-22T18:01:49.587Z,11.80
2019-05-22T18:04:16.608Z,10.80
2019-05-22T18:06:43.501Z,9.67
2019-05-22T18:09:11.251Z,9.53
2019-05-22T18:11:38.153Z,12.23
2019-05-22T18:14:06.862Z,7.70
2019-05-22T18:16:34.536Z,8.73
2019-05-22T18:19:01.433Z,8.00
2019-05-22T18:21:30.458Z,10.13
2019-05-22T18:23:57.552Z,8.97
2019-05-22T18:26:26.235Z,7.43
2019-05-22T18:28:53.262Z,8.00
2019-05-22T18:31:20.411Z,8.47
2019-05-22T18:33:47.542Z,7.97
2019-05-22T18:36:14.663Z,8.00
2019-05-22T18:38:41.524Z,7.40
2019-05-22T18:41:08.439Z,9.20
2019-05-22T18:43:36.062Z,9.50
2019-05-22T18:46:03.511Z,9.57
2019-05-22T18:48:32.954Z,6.13
2019-05-22T18:50:59.334Z,8.07
2019-05-22T18:53:26.889Z,6.73
2019-05-22T18:55:53.798Z,5.57
2019-05-22T18:58:20.718Z,5.70
2019-05-22T19:00:48.004Z,9.43
2019-05-22T19:03:15.531Z,6.00
2019-05-22T19:05:43.131Z,5.93
2019-05-22T19:08:10.254Z,7.40
2019-05-22T19:10:37.478Z,5.70
2019-05-22T19:13:04.507Z,5.50
2019-05-22T19:15:32.006Z,5.60
2019-05-22T19:17:59.207Z,5.50
2019-05-22T19:20:26.201Z,7.43
2019-05-22T19:23:00.145Z,6.83
2019-05-22T19:25:22.546Z,8.83
2019-05-22T19:27:49.606Z,6.40
2019-05-22T19:30:20.896Z,7.97
2019-05-22T19:32:49.172Z,8.80
2019-05-22T19:35:16.339Z,6.67
2019-05-22T19:37:44.038Z,8.07
2019-05-22T19:40:12.200Z,5.63
2019-05-22T19:42:39.414Z,7.07
2019-05-22T19:45:08.480Z,9.83
2019-05-22T19:47:36.340Z,7.50
2019-05-22T19:50:04.613Z,7.93
2019-05-22T19:52:41.739Z,10.17
2019-05-22T19:55:07.156Z,9.50
2019-05-22T19:57:35.178Z,8.17
2019-05-22T20:00:02.558Z,10.27
2019-05-22T20:02:30.864Z,7.27
2019-05-22T20:04:57.812Z,8.57
2019-05-22T20:07:25.526Z,9.67
2019-05-22T20:09:52.998Z,6.60
2019-05-22T20:12:24.291Z,10.20
2019-05-22T20:14:49.587Z,8.33
2019-05-22T20:17:16.599Z,13.43
2019-05-22T20:19:43.648Z,7.53
2019-05-22T20:22:12.267Z,8.13
2019-05-22T20:24:39.196Z,6.60
2019-05-22T20:27:09.483Z,12.00
2019-05-22T20:29:35.565Z,8.10
2019-05-22T20:32:04.598Z,5.10
2019-05-22T20:34:31.738Z,8.67
2019-05-22T20:36:58.838Z,7.17
2019-05-22T20:39:29.309Z,7.43
2019-05-22T20:41:54.569Z,9.53
2019-05-22T20:44:23.170Z,12.57
2019-05-22T20:46:51.346Z,8.83
2019-05-22T20:49:19.149Z,9.00
2019-05-22T20:51:46.242Z,6.50
2019-05-22T20:54:14.572Z,7.77
2019-05-22T20:56:43.702Z,6.17
2019-05-22T20:59:10.964Z,9.90
2019-05-22T21:01:37.754Z,9.43
2019-05-22T21:04:08.394Z,12.03
2019-05-22T21:06:42.388Z,10.77
2019-05-22T21:09:10.249Z,6.70
2019-05-22T21:11:37.883Z,13.53
2019-05-22T21:14:05.744Z,7.50
2019-05-22T21:16:33.663Z,7.27
2019-05-22T21:19:01.870Z,11.03
2019-05-22T21:21:29.246Z,9.13
2019-05-22T21:24:09.422Z,11.67
2019-05-22T21:26:25.682Z,7.43
2019-05-22T21:28:53.129Z,8.47
2019-05-22T21:31:20.951Z,7.80
2019-05-22T21:33:47.950Z,7.53
2019-05-22T21:36:17.846Z,7.53
2019-05-22T21:38:45.558Z,8.53
2019-05-22T21:41:13.475Z,9.33
2019-05-22T21:43:41.024Z,10.27
2019-05-22T21:46:08.158Z,8.40
2019-05-22T21:48:35.579Z,6.63
2019-05-22T21:51:02.844Z,7.23
2019-05-22T21:53:30.424Z,13.27
2019-05-22T21:56:04.756Z,8.30
2019-05-22T21:58:27.319Z,6.93
2019-05-22T22:01:20.187Z,9.77
2019-05-22T22:03:51.767Z,5.77
2019-05-22T22:06:20.063Z,6.93
2019-05-22T22:08:47.135Z,9.83
2019-05-22T22:11:14.248Z,7.63
2019-05-22T22:13:42.789Z,9.30
2019-05-22T22:16:11.876Z,8.70
2019-05-22T22:18:39.697Z,6.07
2019-05-22T22:21:07.195Z,10.93
2019-05-22T22:23:35.339Z,8.53
2019-05-22T22:26:02.657Z,7.80
2019-05-22T22:28:30.181Z,8.23
2019-05-22T22:31:00.010Z,7.77
2019-05-22T22:33:48.637Z,8.67
2019-05-22T22:36:16.640Z,7.17
2019-05-22T22:38:45.134Z,5.27
2019-05-22T22:41:13.355Z,9.80
2019-05-22T22:43:42.454Z,13.33
2019-05-22T22:46:20.310Z,11.33
2019-05-22T22:48:50.146Z,8.07
2019-05-22T22:51:17.760Z,7.03
2019-05-22T22:53:44.987Z,6.67
2019-05-22T22:56:13.038Z,5.40
2019-05-22T22:58:40.465Z,8.40
2019-05-22T23:01:12.442Z,5.33
2019-05-22T23:03:42.007Z,5.17
2019-05-22T23:06:11.398Z,6.53
2019-05-22T23:08:39.130Z,5.77
2019-05-22T23:11:06.203Z,4.87
2019-05-22T23:13:33.193Z,7.97
2019-05-22T23:16:01.495Z,7.17
2019-05-22T23:19:10.756Z,5.97
2019-05-22T23:21:37.171Z,3.57
2019-05-22T23:24:03.532Z,6.27
2019-05-22T23:26:31.257Z,6.60
2019-05-22T23:28:58.349Z,6.07
2019-05-22T23:31:25.253Z,3.33
2019-05-22T23:33:52.759Z,6.00
2019-05-22T23:36:19.940Z,3.80
2019-05-22T23:38:48.938Z,3.67
2019-05-22T23:41:16.030Z,5.30
2019-05-22T23:43:44.204Z,3.67
2019-05-22T23:46:13.819Z,4.30
2019-05-22T23:48:42.395Z,3.63
2019-05-22T23:51:09.626Z,7.37
2019-05-22T23:53:38.327Z,3.43
2019-05-22T23:56:06.051Z,6.77
2019-05-22T23:58:33.961Z,5.73
